Time;durP1;ratioP1;P1;durP2;ratioP2;P2;SDS_P1;SDS_P2;PMS_P1;PMS_P2;Temp;Humidity;BMP_temperature;BMP_pressure;BME280_temperature;BME280_humidity;BME280_pressure;Samples;Min_cycle;Max_cycle;Signal;HPM_P1;HPM_P2
2022/01/17 00:01:35;;;;;;;1999.90;999.90;;;4.60;99.90;;;;;;5054708;28;20899;-73
2022/01/17 00:04:01;;;;;;;1999.90;999.90;;;4.60;99.90;;;;;;5054377;28;20520;-73
2022/01/17 00:06:27;;;;;;;1999.90;999.90;;;4.60;99.90;;;;;;5054494;28;20420;-73
2022/01/17 00:08:53;;;;;;;1999.90;999.90;;;4.60;99.90;;;;;;5054562;28;20200;-73
2022/01/17 00:11:19;;;;;;;1999.90;999.90;;;4.60;99.90;;;;;;5054515;28;20183;-73
2022/01/17 00:13:46;;;;;;;1999.90;999.90;;;4.60;99.90;;;;;;5054395;28;20408;-73
2022/01/17 00:16:17;;;;;;;1999.90;999.90;;;4.60;99.90;;;;;;5053972;28;20202;-73
2022/01/17 00:21:12;;;;;;;1999.90;999.90;;;4.60;99.90;;;;;;5054258;28;20168;-72
2022/01/17 00:23:38;;;;;;;1999.90;999.90;;;4.60;99.90;;;;;;5054337;28;20464;-72
2022/01/17 00:26:06;;;;;;;1999.90;999.90;;;4.60;99.90;;;;;;5053899;28;20187;-72
2022/01/17 00:28:33;;;;;;;1999.90;999.90;;;4.60;99.90;;;;;;5054154;28;20164;-73
2022/01/17 00:31:01;;;;;;;1999.90;999.90;;;4.60;99.90;;;;;;5054170;28;20210;-72
2022/01/17 00:33:27;;;;;;;1999.90;999.90;;;4.60;99.90;;;;;;5054171;28;20999;-72
2022/01/17 00:35:52;;;;;;;1999.90;999.90;;;4.60;99.90;;;;;;5053592;28;20450;-73
2022/01/17 00:38:18;;;;;;;1999.90;999.90;;;4.60;99.90;;;;;;5054065;28;20632;-72
2022/01/17 00:40:44;;;;;;;1999.90;999.90;;;4.60;99.90;;;;;;5053976;28;20210;-72
2022/01/17 00:43:13;;;;;;;1999.90;999.90;;;4.60;99.90;;;;;;5053891;28;20199;-72
2022/01/17 00:45:40;;;;;;;1999.90;999.90;;;4.60;99.90;;;;;;5053591;28;20531;-72
2022/01/17 00:48:07;;;;;;;1999.90;999.90;;;4.60;99.90;;;;;;5053819;28;20399;-73
2022/01/17 00:50:34;;;;;;;1999.90;999.90;;;4.60;99.90;;;;;;5053787;28;20775;-72
2022/01/17 00:53:02;;;;;;;1999.90;999.90;;;4.60;99.90;;;;;;5053780;28;20681;-72
2022/01/17 00:55:29;;;;;;;1999.90;999.90;;;4.60;99.90;;;;;;5053245;28;20179;-72
2022/01/17 00:57:55;;;;;;;1999.90;999.90;;;4.70;99.90;;;;;;5053730;28;20465;-72
2022/01/17 01:00:21;;;;;;;1999.90;999.90;;;4.60;99.90;;;;;;5053563;28;20665;-72
2022/01/17 01:02:47;;;;;;;1999.90;999.90;;;4.60;99.90;;;;;;5053564;28;20156;-72
2022/01/17 01:05:13;;;;;;;1999.90;999.90;;;4.70;99.90;;;;;;5053188;28;20172;-72
2022/01/17 01:07:39;;;;;;;1999.90;999.90;;;4.70;99.90;;;;;;5052772;28;20414;-72
2022/01/17 01:10:10;;;;;;;1999.90;999.90;;;4.70;99.90;;;;;;5053347;28;20406;-72
2022/01/17 01:12:45;;;;;;;1999.90;999.90;;;4.70;99.90;;;;;;5053499;28;20398;-72
2022/01/17 01:15:18;;;;;;;1999.90;999.90;;;4.80;99.90;;;;;;5053040;28;20417;-72
2022/01/17 01:17:53;;;;;;;1999.90;999.90;;;4.70;99.90;;;;;;5053370;28;20198;-73
2022/01/17 01:28:40;;;;;;;1999.90;999.90;;;4.70;99.90;;;;;;5053496;28;20401;-73
2022/01/17 01:31:13;;;;;;;1999.90;999.90;;;4.80;99.90;;;;;;5052920;28;20172;-73
2022/01/17 01:33:41;;;;;;;1999.90;999.90;;;4.80;99.90;;;;;;5052995;28;20406;-72
2022/01/17 01:36:17;;;;;;;1999.90;999.90;;;4.80;99.90;;;;;;5052559;28;20685;-72
2022/01/17 01:38:43;;;;;;;1999.90;999.90;;;4.80;99.90;;;;;;5052802;28;20156;-72
2022/01/17 01:41:09;;;;;;;1999.90;999.90;;;4.80;99.90;;;;;;5052778;28;20716;-72
2022/01/17 01:43:35;;;;;;;1999.90;999.90;;;4.80;99.90;;;;;;5052779;28;20163;-73
2022/01/17 01:46:02;;;;;;;1999.90;999.90;;;4.90;99.90;;;;;;5052357;28;20428;-72
2022/01/17 01:48:30;;;;;;;1999.90;999.90;;;4.80;99.90;;;;;;5052585;28;20398;-72
2022/01/17 01:50:55;;;;;;;1999.90;999.90;;;4.90;99.90;;;;;;5052619;28;20410;-72
2022/01/17 01:53:25;;;;;;;1999.90;999.90;;;4.90;99.90;;;;;;5052586;28;20417;-72
2022/01/17 01:55:52;;;;;;;1999.90;999.90;;;4.90;99.90;;;;;;5052209;28;20203;-72
2022/01/17 01:58:21;;;;;;;1999.90;999.90;;;4.90;99.90;;;;;;5052489;28;20207;-72
2022/01/17 02:00:46;;;;;;;1999.90;999.90;;;5.00;99.90;;;;;;5052372;28;20450;-72
2022/01/17 02:03:12;;;;;;;1999.90;999.90;;;5.00;99.90;;;;;;5052393;28;20406;-72
2022/01/17 02:05:37;;;;;;;1999.90;999.90;;;5.00;99.90;;;;;;5052015;28;20255;-72
2022/01/17 02:08:05;;;;;;;1999.90;999.90;;;5.00;99.90;;;;;;5052356;28;20160;-72
2022/01/17 02:10:31;;;;;;;1999.90;999.90;;;5.00;99.90;;;;;;5052232;28;20541;-72
2022/01/17 02:12:57;;;;;;;1999.90;999.90;;;5.00;99.90;;;;;;5052483;28;20187;-72
2022/01/17 02:15:22;;;;;;;1999.90;999.90;;;5.00;99.90;;;;;;5051830;28;20402;-72
2022/01/17 02:17:58;;;;;;;1999.90;999.90;;;5.00;99.90;;;;;;5052174;28;20168;-73
2022/01/17 02:20:41;;;;;;;1999.90;999.90;;;5.00;99.90;;;;;;5051391;28;20618;-73
2022/01/17 02:23:08;;;;;;;1999.90;999.90;;;5.10;99.90;;;;;;5052167;28;20413;-73
2022/01/17 02:25:34;;;;;;;1999.90;999.90;;;5.00;99.90;;;;;;5051804;28;20485;-73
2022/01/17 02:28:00;;;;;;;1999.90;999.90;;;5.10;99.90;;;;;;5052086;28;20406;-72
2022/01/17 02:30:27;;;;;;;1999.90;999.90;;;5.10;99.90;;;;;;5034152;28;20179;-72
2022/01/17 02:32:53;;;;;;;1999.90;999.90;;;5.10;99.90;;;;;;5051998;28;20509;-72
2022/01/17 02:35:21;;;;;;;1999.90;999.90;;;5.10;99.90;;;;;;5051683;28;20168;-72
2022/01/17 02:37:47;;;;;;;1999.90;999.90;;;5.10;99.90;;;;;;5051777;28;20461;-72
2022/01/17 02:40:15;;;;;;;1999.90;999.90;;;5.10;99.90;;;;;;5051807;28;20458;-73
2022/01/17 02:42:41;;;;;;;1999.90;999.90;;;5.10;99.90;;;;;;5051893;28;20402;-73
2022/01/17 02:45:30;;;;;;;1999.90;999.90;;;5.10;99.90;;;;;;5051615;28;20406;-73
2022/01/17 02:47:55;;;;;;;1999.90;999.90;;;5.20;99.90;;;;;;5051848;28;20168;-73
2022/01/17 02:50:21;;;;;;;1999.90;999.90;;;5.20;99.90;;;;;;5051846;28;20524;-72
2022/01/17 02:52:47;;;;;;;1999.90;999.90;;;5.10;99.90;;;;;;5051823;28;20908;-72
2022/01/17 02:55:12;;;;;;;1999.90;999.90;;;5.20;99.90;;;;;;5051579;28;20199;-73
2022/01/17 02:57:38;;;;;;;1999.90;999.90;;;5.10;99.90;;;;;;5051797;28;20194;-73
2022/01/17 03:00:09;;;;;;;1999.90;999.90;;;5.20;99.90;;;;;;5051790;28;20234;-73
2022/01/17 03:02:35;;;;;;;1999.90;999.90;;;5.20;99.90;;;;;;5051702;28;20233;-73
2022/01/17 03:05:00;;;;;;;1999.90;999.90;;;5.20;99.90;;;;;;5051436;28;20406;-73
2022/01/17 03:07:26;;;;;;;1999.90;999.90;;;5.20;99.90;;;;;;5051615;28;20567;-73
2022/01/17 03:10:02;;;;;;;1999.90;999.90;;;5.20;99.90;;;;;;5051618;28;20168;-73
2022/01/17 03:12:31;;;;;;;1999.90;999.90;;;5.20;99.90;;;;;;5051648;28;20164;-73
2022/01/17 03:14:57;;;;;;;1999.90;999.90;;;5.20;99.90;;;;;;5051329;28;20406;-73
2022/01/17 03:17:23;;;;;;;1999.90;999.90;;;5.20;99.90;;;;;;5051396;28;20943;-73
2022/01/17 03:19:49;;;;;;;1999.90;999.90;;;5.20;99.90;;;;;;5051463;28;20460;-73
2022/01/17 03:22:15;;;;;;;1999.90;999.90;;;5.30;99.90;;;;;;5051507;28;20405;-73
2022/01/17 03:24:40;;;;;;;1999.90;999.90;;;5.20;99.90;;;;;;5051216;28;20417;-73
2022/01/17 03:27:06;;;;;;;1999.90;999.90;;;5.20;99.90;;;;;;5051404;28;20180;-73
2022/01/17 03:29:31;;;;;;;1999.90;999.90;;;5.20;99.90;;;;;;5051429;28;20530;-73
2022/01/17 03:31:57;;;;;;;1999.90;999.90;;;5.20;99.90;;;;;;5054600;28;20598;-73
2022/01/17 03:34:23;;;;;;;1999.90;999.90;;;5.30;99.90;;;;;;5055166;28;20599;-73
2022/01/17 03:36:48;;;;;;;1999.90;999.90;;;5.30;99.90;;;;;;5055049;28;20572;-73
2022/01/17 03:39:14;;;;;;;1999.90;999.90;;;5.30;99.90;;;;;;5055329;28;20199;-73
2022/01/17 03:41:40;;;;;;;1999.90;999.90;;;5.30;99.90;;;;;;5055135;28;20175;-73
2022/01/17 03:44:07;;;;;;;1999.90;999.90;;;5.40;99.90;;;;;;5055028;28;20414;-73
2022/01/17 03:46:33;;;;;;;1999.90;999.90;;;5.40;99.90;;;;;;5054835;28;20483;-73
2022/01/17 03:48:59;;;;;;;1999.90;999.90;;;5.30;99.90;;;;;;5055083;28;20944;-73
2022/01/17 03:51:24;;;;;;;1999.90;999.90;;;5.40;99.90;;;;;;5055041;28;20914;-73
2022/01/17 03:53:50;;;;;;;1999.90;999.90;;;5.40;99.90;;;;;;5054907;28;20505;-73
2022/01/17 03:56:18;;;;;;;1999.90;999.90;;;5.40;99.90;;;;;;5054543;28;20184;-73
2022/01/17 03:58:45;;;;;;;1999.90;999.90;;;5.40;99.90;;;;;;5054687;28;20221;-73
2022/01/17 04:01:10;;;;;;;1999.90;999.90;;;5.40;99.90;;;;;;5054653;28;20453;-73
2022/01/17 04:03:36;;;;;;;1999.90;999.90;;;5.40;99.90;;;;;;5054704;28;20444;-73
2022/01/17 04:06:02;;;;;;;1999.90;999.90;;;5.40;99.90;;;;;;5054359;28;20183;-73
2022/01/17 04:08:27;;;;;;;1999.90;999.90;;;5.40;99.90;;;;;;5054633;28;20229;-73
2022/01/17 04:10:53;;;;;;;1999.90;999.90;;;5.40;99.90;;;;;;5054602;28;20664;-73
2022/01/17 04:13:19;;;;;;;1999.90;999.90;;;5.40;99.90;;;;;;5054513;28;20175;-73
2022/01/17 04:15:44;;;;;;;1999.90;999.90;;;5.40;99.90;;;;;;5054305;28;20195;-73
2022/01/17 04:18:11;;;;;;;1999.90;999.90;;;5.40;99.90;;;;;;5054485;28;20187;-73
2022/01/17 04:20:39;;;;;;;1999.90;999.90;;;5.40;99.90;;;;;;5054345;28;20541;-73
2022/01/17 04:23:10;;;;;;;1999.90;999.90;;;5.50;99.90;;;;;;5054421;28;20808;-73
2022/01/17 04:25:38;;;;;;;1999.90;999.90;;;5.40;99.90;;;;;;5054017;28;20811;-73
2022/01/17 04:28:05;;;;;;;1999.90;999.90;;;5.40;99.90;;;;;;5054273;28;20406;-73
2022/01/17 04:30:31;;;;;;;1999.90;999.90;;;5.50;99.90;;;;;;5054162;28;20778;-73
2022/01/17 04:32:58;;;;;;;1999.90;999.90;;;5.50;99.90;;;;;;5054138;28;20910;-73
2022/01/17 04:35:26;;;;;;;1999.90;999.90;;;5.40;99.90;;;;;;5053765;28;20417;-73
2022/01/17 04:38:05;;;;;;;1999.90;999.90;;;5.50;99.90;;;;;;5054565;28;20821;-72
2022/01/17 04:40:36;;;;;;;1999.90;999.90;;;5.50;99.90;;;;;;5053921;28;20450;-72
2022/01/17 04:43:05;;;;;;;1999.90;999.90;;;5.50;99.90;;;;;;5053159;28;20423;-72
2022/01/17 04:45:32;;;;;;;1999.90;999.90;;;5.50;99.90;;;;;;5053421;28;20406;-72
2022/01/17 04:47:58;;;;;;;1999.90;999.90;;;5.50;99.90;;;;;;5053982;28;20508;-72
2022/01/17 04:50:26;;;;;;;1999.90;999.90;;;5.50;99.90;;;;;;5053839;28;20406;-72
2022/01/17 04:52:57;;;;;;;1999.90;999.90;;;5.50;99.90;;;;;;5053760;28;20402;-72
2022/01/17 04:55:24;;;;;;;1999.90;999.90;;;5.50;99.90;;;;;;5053473;28;20401;-72
2022/01/17 04:57:50;;;;;;;1999.90;999.90;;;5.50;99.90;;;;;;5053713;28;20493;-74
2022/01/17 05:00:18;;;;;;;1999.90;999.90;;;5.50;99.90;;;;;;5053489;28;20537;-72
2022/01/17 05:02:45;;;;;;;1999.90;999.90;;;5.50;99.90;;;;;;5053520;28;20430;-73
2022/01/17 05:05:12;;;;;;;1999.90;999.90;;;5.40;99.90;;;;;;5053290;28;20478;-72
2022/01/17 05:07:39;;;;;;;1999.90;999.90;;;5.40;99.90;;;;;;5053346;28;20836;-73
2022/01/17 05:10:10;;;;;;;1999.90;999.90;;;5.40;99.90;;;;;;5053634;28;20413;-72
2022/01/17 05:12:36;;;;;;;1999.90;999.90;;;5.40;99.90;;;;;;5053469;28;20410;-72
2022/01/17 05:15:03;;;;;;;1999.90;999.90;;;5.40;99.90;;;;;;5053150;28;20407;-72
2022/01/17 05:19:58;;;;;;;1999.90;999.90;;;5.40;99.90;;;;;;5053132;28;20449;-72
2022/01/17 05:22:34;;;;;;;1999.90;999.90;;;5.40;99.90;;;;;;5053141;28;20402;-72
2022/01/17 05:25:01;;;;;;;1999.90;999.90;;;5.40;99.90;;;;;;5053018;28;20451;-72
2022/01/17 05:27:27;;;;;;;1999.90;999.90;;;5.40;99.90;;;;;;5053000;28;20418;-73
2022/01/17 05:29:52;;;;;;;1999.90;999.90;;;5.40;99.90;;;;;;5053019;28;20406;-73
2022/01/17 05:32:20;;;;;;;1999.90;999.90;;;5.40;99.90;;;;;;5053049;28;20463;-72
2022/01/17 05:34:46;;;;;;;1999.90;999.90;;;5.40;99.90;;;;;;5052667;28;20545;-72
2022/01/17 05:37:15;;;;;;;1999.90;999.90;;;5.40;99.90;;;;;;5052752;28;20507;-72
2022/01/17 05:39:45;;;;;;;1999.90;999.90;;;5.40;99.90;;;;;;5052901;28;20464;-73
2022/01/17 05:42:17;;;;;;;1999.90;999.90;;;5.40;99.90;;;;;;5053050;28;20552;-73
2022/01/17 05:44:43;;;;;;;1999.90;999.90;;;5.40;99.90;;;;;;5052527;28;20183;-73
2022/01/17 05:47:09;;;;;;;1999.90;999.90;;;5.40;99.90;;;;;;5052583;28;20453;-73
2022/01/17 05:49:35;;;;;;;1999.90;999.90;;;5.40;99.90;;;;;;5052695;28;20779;-72
2022/01/17 05:52:01;;;;;;;1999.90;999.90;;;5.40;99.90;;;;;;5052663;28;20489;-72
2022/01/17 05:54:26;;;;;;;1999.90;999.90;;;5.40;99.90;;;;;;5052183;28;21209;-71
2022/01/17 05:56:52;;;;;;;1999.90;999.90;;;5.40;99.90;;;;;;5052496;28;20653;-72
2022/01/17 05:59:17;;;;;;;1999.90;999.90;;;5.40;99.90;;;;;;5052393;28;20274;-72
2022/01/17 06:01:44;;;;;;;1999.90;999.90;;;5.40;99.90;;;;;;5052422;28;20167;-73
2022/01/17 06:04:10;;;;;;;1999.90;999.90;;;5.40;99.90;;;;;;5052213;28;20164;-72
2022/01/17 06:06:35;;;;;;;1999.90;999.90;;;5.40;99.90;;;;;;5052337;28;20444;-72
2022/01/17 06:09:01;;;;;;;1999.90;999.90;;;5.40;99.90;;;;;;5052349;28;20213;-72
2022/01/17 06:11:27;;;;;;;1999.90;999.90;;;5.40;99.90;;;;;;5052337;28;20175;-72
2022/01/17 06:13:53;;;;;;;1999.90;999.90;;;5.40;99.90;;;;;;5052270;28;20160;-72
2022/01/17 06:16:18;;;;;;;1999.90;999.90;;;5.40;99.90;;;;;;5051798;28;20792;-72
2022/01/17 06:18:44;;;;;;;1999.90;999.90;;;5.50;99.90;;;;;;5052208;28;20175;-72
2022/01/17 06:21:10;;;;;;;1999.90;999.90;;;5.50;99.90;;;;;;5034296;28;20669;-72
2022/01/17 06:23:35;;;;;;;1999.90;999.90;;;5.50;99.90;;;;;;5052161;28;20172;-72
2022/01/17 06:26:01;;;;;;;1999.90;999.90;;;5.50;99.90;;;;;;5051734;28;20179;-72
2022/01/17 06:28:26;;;;;;;1999.90;999.90;;;5.50;99.90;;;;;;5052017;28;20521;-72
2022/01/17 06:30:52;;;;;;;1999.90;999.90;;;5.50;99.90;;;;;;5051984;28;20194;-73
2022/01/17 06:33:18;;;;;;;1999.90;999.90;;;5.50;99.90;;;;;;5052053;28;20179;-73
2022/01/17 06:35:44;;;;;;;1999.90;999.90;;;5.50;99.90;;;;;;5051504;28;20425;-73
2022/01/17 06:38:10;;;;;;;1999.90;999.90;;;5.50;99.90;;;;;;5051984;28;20255;-73
2022/01/17 06:40:36;;;;;;;1999.90;999.90;;;5.50;99.90;;;;;;5051906;28;20199;-72
2022/01/17 06:43:04;;;;;;;1999.90;999.90;;;5.60;99.90;;;;;;5051995;28;20451;-74
2022/01/17 06:45:30;;;;;;;1999.90;999.90;;;5.50;99.90;;;;;;5051497;28;20163;-74
2022/01/17 06:47:55;;;;;;;1999.90;999.90;;;5.50;99.90;;;;;;5051990;28;20398;-74
2022/01/17 06:50:21;;;;;;;1999.90;999.90;;;5.50;99.90;;;;;;5051923;28;20163;-74
2022/01/17 06:52:47;;;;;;;1999.90;999.90;;;5.60;99.90;;;;;;5051979;28;20210;-73
2022/01/17 06:55:12;;;;;;;1999.90;999.90;;;5.50;99.90;;;;;;5051595;28;20402;-74
2022/01/17 06:57:38;;;;;;;1999.90;999.90;;;5.60;99.90;;;;;;5051737;28;20618;-73
2022/01/17 07:00:07;;;;;;;1999.90;999.90;;;5.60;99.90;;;;;;5051734;28;20723;-73
2022/01/17 07:02:32;;;;;;;1999.90;999.90;;;5.60;99.90;;;;;;5051797;28;20172;-73
2022/01/17 07:04:58;;;;;;;1999.90;999.90;;;5.60;99.90;;;;;;5051634;28;20398;-74
2022/01/17 07:07:24;;;;;;;1999.90;999.90;;;5.60;99.90;;;;;;5055802;28;20766;-74
2022/01/17 07:09:49;;;;;;;1999.90;999.90;;;5.60;99.90;;;;;;5055726;28;20228;-73
2022/01/17 07:12:15;;;;;;;1999.90;999.90;;;5.60;99.90;;;;;;5055712;28;20183;-73
2022/01/17 07:14:42;;;;;;;1999.90;999.90;;;5.70;99.90;;;;;;5055331;28;20172;-73
2022/01/17 07:17:11;;;;;;;1999.90;999.90;;;5.70;99.90;;;;;;5055732;28;20223;-73
2022/01/17 07:19:38;;;;;;;1999.90;999.90;;;5.70;99.90;;;;;;5055422;28;20537;-73
2022/01/17 07:22:04;;;;;;;1999.90;999.90;;;5.70;99.90;;;;;;5055407;28;20497;-73
2022/01/17 07:24:30;;;;;;;1999.90;999.90;;;5.70;99.90;;;;;;5055120;28;20468;-73
2022/01/17 07:26:56;;;;;;;1999.90;999.90;;;5.60;99.90;;;;;;5055339;28;20429;-73
2022/01/17 07:29:22;;;;;;;1999.90;999.90;;;5.70;99.90;;;;;;5055349;28;20424;-73
2022/01/17 07:31:47;;;;;;;1999.90;999.90;;;5.70;99.90;;;;;;5055356;28;20545;-73
2022/01/17 07:34:13;;;;;;;1999.90;999.90;;;5.70;99.90;;;;;;5054987;28;20406;-73
2022/01/17 07:36:38;;;;;;;1999.90;999.90;;;5.70;99.90;;;;;;5055069;28;20265;-73
2022/01/17 07:39:04;;;;;;;1999.90;999.90;;;5.70;99.90;;;;;;5055113;28;20164;-73
2022/01/17 07:41:30;;;;;;;1999.90;999.90;;;5.70;99.90;;;;;;5055079;28;20194;-73
2022/01/17 07:43:55;;;;;;;1999.90;999.90;;;5.70;99.90;;;;;;5054989;28;20168;-73
2022/01/17 07:46:29;;;;;;;1999.90;999.90;;;5.70;99.90;;;;;;5054969;28;20199;-73
2022/01/17 07:51:30;;;;;;;1999.90;999.90;;;5.60;99.90;;;;;;5055115;28;20401;-73
2022/01/17 07:53:57;;;;;;;1999.90;999.90;;;5.70;99.90;;;;;;5054754;28;20410;-73
2022/01/17 07:56:24;;;;;;;1999.90;999.90;;;5.70;99.90;;;;;;5054586;28;20449;-73
2022/01/17 07:58:49;;;;;;;1999.90;999.90;;;5.70;99.90;;;;;;5054772;28;20468;-73
2022/01/17 08:01:15;;;;;;;1999.90;999.90;;;5.70;99.90;;;;;;5055079;28;20402;-73
2022/01/17 08:03:41;;;;;;;1999.90;999.90;;;5.70;99.90;;;;;;5054720;28;20248;-72
2022/01/17 08:06:07;;;;;;;1999.90;999.90;;;5.70;99.90;;;;;;5054388;28;20516;-73
2022/01/17 08:08:33;;;;;;;1999.90;999.90;;;5.70;99.90;;;;;;5054681;28;20175;-73
2022/01/17 08:10:59;;;;;;;1999.90;999.90;;;5.70;99.90;;;;;;5054490;28;20545;-73
2022/01/17 08:13:24;;;;;;;1999.90;999.90;;;5.80;99.90;;;;;;5054700;28;20421;-73
2022/01/17 08:15:50;;;;;;;1999.90;999.90;;;5.80;99.90;;;;;;5054142;28;20206;-73
2022/01/17 08:18:16;;;;;;;1999.90;999.90;;;5.80;99.90;;;;;;5054528;28;20176;-73
2022/01/17 08:20:42;;;;;;;1999.90;999.90;;;5.70;99.90;;;;;;5054441;28;20511;-73
2022/01/17 08:23:09;;;;;;;1999.90;999.90;;;5.80;99.90;;;;;;5054503;28;20402;-73
2022/01/17 08:25:35;;;;;;;1999.90;999.90;;;5.80;99.90;;;;;;5053882;28;20464;-73
2022/01/17 08:28:00;;;;;;;1999.90;999.90;;;5.80;99.90;;;;;;5054259;28;20406;-73
2022/01/17 08:30:26;;;;;;;1999.90;999.90;;;5.80;99.90;;;;;;5054231;28;20410;-73
2022/01/17 08:32:52;;;;;;;1999.90;999.90;;;5.80;99.90;;;;;;5054238;28;20184;-73
2022/01/17 08:35:19;;;;;;;1999.90;999.90;;;5.80;99.90;;;;;;5053888;28;20176;-73
2022/01/17 08:37:45;;;;;;;1999.90;999.90;;;5.90;99.90;;;;;;5053897;28;20453;-73
2022/01/17 08:40:12;;;;;;;1999.90;999.90;;;5.90;99.90;;;;;;5053852;28;20500;-73
2022/01/17 08:42:37;;;;;;;1999.90;999.90;;;5.90;99.90;;;;;;5053944;28;20164;-73
2022/01/17 08:45:10;;;;;;;1999.90;999.90;;;5.90;99.90;;;;;;5035858;28;20417;-73
2022/01/17 08:47:35;;;;;;;1999.90;999.90;;;5.90;99.90;;;;;;5053890;28;20517;-73
2022/01/17 08:50:02;;;;;;;1999.90;999.90;;;5.90;99.90;;;;;;5053874;28;20402;-73
2022/01/17 08:52:28;;;;;;;1999.90;999.90;;;5.90;99.90;;;;;;5053762;28;20225;-73
2022/01/17 08:54:54;;;;;;;1999.90;999.90;;;5.90;99.90;;;;;;5053346;28;20739;-73
2022/01/17 08:57:20;;;;;;;1999.90;999.90;;;5.90;99.90;;;;;;5053733;28;20196;-73
2022/01/17 08:59:45;;;;;;;1999.90;999.90;;;5.90;99.90;;;;;;5053666;28;20223;-73
2022/01/17 09:02:13;;;;;;;1999.90;999.90;;;5.90;99.90;;;;;;5053641;28;20797;-73
2022/01/17 09:04:41;;;;;;;1999.90;999.90;;;5.90;99.90;;;;;;5053351;28;20483;-74
2022/01/17 09:07:12;;;;;;;1999.90;999.90;;;5.90;99.90;;;;;;5053479;28;20852;-74
2022/01/17 09:09:38;;;;;;;1999.90;999.90;;;5.90;99.90;;;;;;5053390;28;20410;-73
2022/01/17 09:12:07;;;;;;;1999.90;999.90;;;6.00;99.90;;;;;;5053388;28;20421;-74
2022/01/17 09:14:33;;;;;;;1999.90;999.90;;;6.00;99.90;;;;;;5053114;28;20437;-74
2022/01/17 09:16:59;;;;;;;1999.90;999.90;;;6.00;99.90;;;;;;5053320;28;20492;-74
2022/01/17 09:19:26;;;;;;;1999.90;999.90;;;6.10;99.90;;;;;;5053231;28;20454;-74
2022/01/17 09:21:52;;;;;;;1999.90;999.90;;;6.10;99.90;;;;;;5053253;28;20168;-74
2022/01/17 09:24:17;;;;;;;1999.90;999.90;;;6.10;99.90;;;;;;5052930;28;20460;-74
2022/01/17 09:26:45;;;;;;;1999.90;999.90;;;6.20;99.90;;;;;;5053104;28;20701;-73
2022/01/17 09:29:10;;;;;;;1999.90;999.90;;;6.30;99.90;;;;;;5052718;28;20263;-73
2022/01/17 09:31:36;;;;;;;1999.90;999.90;;;6.30;99.90;;;;;;5053105;28;20842;-73
2022/01/17 09:34:02;;;;;;;1999.90;999.90;;;6.30;99.90;;;;;;5052805;28;20250;-74
2022/01/17 09:36:31;;;;;;;1999.90;999.90;;;6.30;99.90;;;;;;5052802;28;20278;-74
2022/01/17 09:38:57;;;;;;;1999.90;999.90;;;6.40;99.90;;;;;;5052973;28;20175;-74
2022/01/17 09:41:23;;;;;;;1999.90;999.90;;;6.40;99.90;;;;;;5052888;28;20410;-73
2022/01/17 09:43:50;;;;;;;1999.90;999.90;;;6.40;99.90;;;;;;5052811;28;20172;-74
2022/01/17 09:46:18;;;;;;;1999.90;999.90;;;6.40;99.90;;;;;;5052484;28;20902;-74
2022/01/17 09:48:48;;;;;;;1999.90;999.90;;;6.50;99.90;;;;;;5051779;28;20405;-72
2022/01/17 09:51:37;;;;;;;1999.90;999.90;;;6.50;99.90;;;;;;5071348;28;20420;-73
2022/01/17 09:54:05;;;;;;;1999.90;999.90;;;6.60;99.90;;;;;;5080612;28;20770;-71
2022/01/17 09:56:31;;;;;;;1999.90;999.90;;;6.60;99.90;;;;;;5071677;28;20441;-71
2022/01/17 09:58:58;;;;;;;1999.90;999.90;;;6.60;99.90;;;;;;5062491;28;20405;-72
2022/01/17 10:01:25;;;;;;;1999.90;999.90;;;6.70;99.90;;;;;;5072206;28;20770;-72
2022/01/17 10:03:52;;;;;;;1999.90;999.90;;;6.70;99.90;;;;;;5061987;28;20420;-71
2022/01/17 10:06:19;;;;;;;1999.90;999.90;;;6.60;99.90;;;;;;5070862;28;20457;-73
2022/01/17 10:08:44;;;;;;;1999.90;999.90;;;6.70;99.90;;;;;;5072098;28;20412;-73
2022/01/17 10:11:16;;;;;;;1999.90;999.90;;;6.70;99.90;;;;;;5062142;28;20411;-73
2022/01/17 10:13:46;;;;;;;1999.90;999.90;;;6.70;99.90;;;;;;5070575;28;20143;-74
2022/01/17 10:16:19;;;;;;;1999.90;999.90;;;6.70;99.90;;;;;;5070744;28;20432;-73
2022/01/17 10:19:00;;;;;;;1999.90;999.90;;;6.70;99.90;;;;;;5070224;28;20386;-73
2022/01/17 10:21:48;;;;;;;1999.90;999.90;;;6.80;99.90;;;;;;5070459;28;20409;-73
2022/01/17 10:24:26;;;;;;;1999.90;999.90;;;6.80;99.90;;;;;;5070133;28;20420;-73
2022/01/17 10:27:10;;;;;;;1999.90;999.90;;;6.90;99.90;;;;;;5070224;28;20508;-73
2022/01/17 10:35:22;;;;;;;1999.90;999.90;;;6.90;99.90;;;;;;5070281;28;20384;-73
2022/01/17 10:38:07;;;;;;;1999.90;999.90;;;6.90;99.90;;;;;;5070219;28;20456;-73
2022/01/17 10:40:56;;;;;;;1999.90;999.90;;;7.00;99.90;;;;;;5069346;28;20505;-74
2022/01/17 10:43:34;;;;;;;1999.90;999.90;;;7.10;99.90;;;;;;5070794;28;20405;-73
2022/01/17 10:46:00;;;;;;;1999.90;999.90;;;7.10;99.90;;;;;;5070123;28;20424;-73
2022/01/17 10:48:37;;;;;;;1999.90;999.90;;;7.10;99.90;;;;;;5070224;28;20447;-72
2022/01/17 10:51:05;;;;;;;1999.90;999.90;;;7.20;99.90;;;;;;5070197;28;20393;-73
2022/01/17 10:53:31;;;;;;;1999.90;999.90;;;7.30;99.90;;;;;;5069977;28;20405;-73
2022/01/17 10:55:57;;;;;;;1999.90;999.90;;;7.40;99.90;;;;;;5069519;28;21243;-72
2022/01/17 10:58:28;;;;;;;1999.90;999.90;;;7.40;99.90;;;;;;5070285;28;20467;-72
2022/01/17 11:01:00;;;;;;;1999.90;999.90;;;7.40;99.90;;;;;;5063298;28;20539;-73
2022/01/17 11:03:28;;;;;;;1999.90;999.90;;;7.40;99.90;;;;;;5063555;28;20408;-73
2022/01/17 11:05:55;;;;;;;1999.90;999.90;;;7.30;99.90;;;;;;5069420;28;20427;-72
2022/01/17 11:08:27;;;;;;;1999.90;999.90;;;7.30;99.90;;;;;;5070263;28;20476;-72
2022/01/17 11:10:59;;;;;;;1999.90;999.90;;;7.20;99.90;;;;;;5069586;28;20790;-72
2022/01/17 11:13:29;;;;;;;1999.90;999.90;;;7.20;99.90;;;;;;5070392;28;20381;-72
2022/01/17 11:15:57;;;;;;;1999.90;999.90;;;7.20;99.90;;;;;;5069645;28;20522;-72
2022/01/17 11:18:26;;;;;;;1999.90;999.90;;;7.20;99.90;;;;;;5069561;28;20412;-73
2022/01/17 11:21:07;;;;;;;1999.90;999.90;;;7.20;99.90;;;;;;5070125;28;20444;-73
2022/01/17 11:23:32;;;;;;;1999.90;999.90;;;7.20;99.90;;;;;;5069880;28;20381;-73
2022/01/17 11:25:58;;;;;;;1999.90;999.90;;;7.20;99.90;;;;;;5069113;28;20427;-72
2022/01/17 11:28:29;;;;;;;1999.90;999.90;;;7.20;99.90;;;;;;5069730;28;20172;-73
2022/01/17 11:30:58;;;;;;;1999.90;999.90;;;7.20;99.90;;;;;;5069865;28;20242;-71
2022/01/17 11:33:25;;;;;;;1999.90;999.90;;;7.20;99.90;;;;;;5069806;28;20930;-71
2022/01/17 11:35:53;;;;;;;1999.90;999.90;;;7.20;99.90;;;;;;5069416;28;20555;-72
2022/01/17 11:38:30;;;;;;;1999.90;999.90;;;7.10;99.90;;;;;;5069825;28;21106;-72
2022/01/17 11:40:57;;;;;;;1999.90;999.90;;;7.10;99.90;;;;;;5069395;28;20462;-72
2022/01/17 11:43:35;;;;;;;1999.90;999.90;;;7.10;99.90;;;;;;5069656;28;20393;-71
2022/01/17 11:46:18;;;;;;;1999.90;999.90;;;7.10;99.90;;;;;;5069632;28;20933;-72
2022/01/17 11:48:52;;;;;;;1999.90;999.90;;;7.20;99.90;;;;;;5069522;28;20492;-71
2022/01/17 11:51:18;;;;;;;1999.90;999.90;;;7.20;99.90;;;;;;5070381;28;20401;-71
2022/01/17 11:53:46;;;;;;;1999.90;999.90;;;7.20;99.90;;;;;;5073262;28;20414;-71
2022/01/17 11:56:34;;;;;;;1999.90;999.90;;;7.30;99.90;;;;;;5072964;28;20198;-71
2022/01/17 11:59:00;;;;;;;1999.90;999.90;;;7.30;99.90;;;;;;5073898;28;20390;-72
2022/01/17 12:01:25;;;;;;;1999.90;999.90;;;7.30;99.90;;;;;;5073243;28;20415;-71
2022/01/17 12:03:53;;;;;;;1999.90;999.90;;;7.40;99.90;;;;;;5072639;28;20174;-71
2022/01/17 12:06:25;;;;;;;1999.90;999.90;;;7.40;99.90;;;;;;5072785;28;20187;-71
2022/01/17 12:09:24;;;;;;;1999.90;999.90;;;7.40;99.90;;;;;;5074485;28;20441;-71
2022/01/17 12:12:14;;;;;;;1999.90;999.90;;;7.30;99.90;;;;;;5064458;28;20402;-72
2022/01/17 12:14:44;;;;;;;1999.90;999.90;;;7.30;99.90;;;;;;5072523;28;20374;-73
2022/01/17 12:17:19;;;;;;;1999.90;999.90;;;7.30;99.90;;;;;;5072348;28;20507;-70
2022/01/17 12:20:24;;;;;;;1999.90;999.90;;;7.30;99.90;;;;;;5072779;28;20883;-70
2022/01/17 12:22:57;;;;;;;1999.90;999.90;;;7.20;99.90;;;;;;4971326;28;20796;-70
2022/01/17 12:25:31;;;;;;;1999.90;999.90;;;7.20;99.90;;;;;;4970927;28;20477;-70
2022/01/17 12:28:03;;;;;;;1999.90;999.90;;;7.10;99.90;;;;;;5029897;28;20413;-70
2022/01/17 12:30:49;;;;;;;1999.90;999.90;;;7.10;99.90;;;;;;5072645;28;20492;-70
2022/01/17 12:33:30;;;;;;;1999.90;999.90;;;7.00;99.90;;;;;;5071984;28;20436;-70
2022/01/17 12:35:58;;;;;;;1999.90;999.90;;;7.00;99.90;;;;;;5072307;28;20879;-70